sensor_id;sensor_type;location;lat;lon;timestamp;pressure;altitude;pressure_sealevel;temperature;humidity
54262;BME280;40174;52.364;6.452;2023-03-13T00:01:42;99966.47;;;7.83;100.00
54262;BME280;40174;52.364;6.452;2023-03-13T00:04:10;99968.38;;;7.81;100.00
54262;BME280;40174;52.364;6.452;2023-03-13T00:06:38;99959.66;;;7.81;100.00
54262;BME280;40174;52.364;6.452;2023-03-13T00:09:06;99954.53;;;7.79;100.00
54262;BME280;40174;52.364;6.452;2023-03-13T00:11:35;99943.41;;;7.76;100.00
54262;BME280;40174;52.364;6.452;2023-03-13T00:14:04;99947.00;;;7.75;100.00
54262;BME280;40174;52.364;6.452;2023-03-13T00:16:31;99929.31;;;7.77;100.00
54262;BME280;40174;52.364;6.452;2023-03-13T00:18:59;99926.22;;;7.72;100.00
54262;BME280;40174;52.364;6.452;2023-03-13T00:21:27;99923.72;;;7.70;100.00
54262;BME280;40174;52.364;6.452;2023-03-13T00:23:55;99916.66;;;7.70;100.00
54262;BME280;40174;52.364;6.452;2023-03-13T00:26:24;99912.88;;;7.63;100.00
54262;BME280;40174;52.364;6.452;2023-03-13T00:28:53;99906.53;;;7.66;100.00
54262;BME280;40174;52.364;6.452;2023-03-13T00:31:21;99912.88;;;7.63;100.00
54262;BME280;40174;52.364;6.452;2023-03-13T00:33:50;99895.16;;;7.65;100.00
54262;BME280;40174;52.364;6.452;2023-03-13T00:36:18;99897.09;;;7.63;100.00
54262;BME280;40174;52.364;6.452;2023-03-13T00:38:46;99891.72;;;7.65;100.00
54262;BME280;40174;52.364;6.452;2023-03-13T00:41:15;99879.28;;;7.67;100.00
54262;BME280;40174;52.364;6.452;2023-03-13T00:43:43;99877.84;;;7.63;100.00
54262;BME280;40174;52.364;6.452;2023-03-13T00:46:12;99872.22;;;7.67;100.00
54262;BME280;40174;52.364;6.452;2023-03-13T00:48:39;99859.44;;;7.63;100.00
54262;BME280;40174;52.364;6.452;2023-03-13T00:51:07;99855.44;;;7.68;100.00
54262;BME280;40174;52.364;6.452;2023-03-13T00:53:34;99854.03;;;7.64;100.00
54262;BME280;40174;52.364;6.452;2023-03-13T00:56:02;99841.16;;;7.61;100.00
54262;BME280;40174;52.364;6.452;2023-03-13T00:58:32;99833.53;;;7.58;100.00
54262;BME280;40174;52.364;6.452;2023-03-13T01:01:06;99830.03;;;7.58;100.00
54262;BME280;40174;52.364;6.452;2023-03-13T01:03:35;99823.72;;;7.60;100.00
54262;BME280;40174;52.364;6.452;2023-03-13T01:06:04;99820.00;;;7.63;100.00
54262;BME280;40174;52.364;6.452;2023-03-13T01:08:32;99808.06;;;7.59;100.00
54262;BME280;40174;52.364;6.452;2023-03-13T01:11:01;99793.09;;;7.59;100.00
54262;BME280;40174;52.364;6.452;2023-03-13T01:13:29;99795.63;;;7.61;100.00
54262;BME280;40174;52.364;6.452;2023-03-13T01:16:01;99786.31;;;7.57;100.00
54262;BME280;40174;52.364;6.452;2023-03-13T01:18:28;99777.44;;;7.58;100.00
54262;BME280;40174;52.364;6.452;2023-03-13T01:20:56;99776.63;;;7.57;100.00
54262;BME280;40174;52.364;6.452;2023-03-13T01:23:23;99770.16;;;7.61;100.00
54262;BME280;40174;52.364;6.452;2023-03-13T01:25:49;99755.34;;;7.60;100.00
54262;BME280;40174;52.364;6.452;2023-03-13T01:28:16;99744.94;;;7.59;100.00
54262;BME280;40174;52.364;6.452;2023-03-13T01:30:42;99743.25;;;7.58;100.00
54262;BME280;40174;52.364;6.452;2023-03-13T01:33:09;99731.53;;;7.62;100.00
54262;BME280;40174;52.364;6.452;2023-03-13T01:35:36;99724.09;;;7.67;100.00
54262;BME280;40174;52.364;6.452;2023-03-13T01:38:04;99719.91;;;7.64;100.00
54262;BME280;40174;52.364;6.452;2023-03-13T01:40:30;99705.22;;;7.62;100.00
54262;BME280;40174;52.364;6.452;2023-03-13T01:42:58;99694.59;;;7.63;100.00
54262;BME280;40174;52.364;6.452;2023-03-13T01:45:53;99693.47;;;7.66;100.00
54262;BME280;40174;52.364;6.452;2023-03-13T01:48:25;99692.38;;;7.68;100.00
54262;BME280;40174;52.364;6.452;2023-03-13T01:50:53;99687.97;;;7.69;100.00
54262;BME280;40174;52.364;6.452;2023-03-13T01:53:29;99672.31;;;7.67;100.00
54262;BME280;40174;52.364;6.452;2023-03-13T01:55:58;99671.66;;;7.75;100.00
54262;BME280;40174;52.364;6.452;2023-03-13T01:58:27;99658.19;;;7.68;100.00
54262;BME280;40174;52.364;6.452;2023-03-13T02:00:55;99643.94;;;7.71;100.00
54262;BME280;40174;52.364;6.452;2023-03-13T02:03:24;99638.69;;;7.71;100.00
54262;BME280;40174;52.364;6.452;2023-03-13T02:05:52;99638.44;;;7.74;100.00
54262;BME280;40174;52.364;6.452;2023-03-13T02:08:22;99623.47;;;7.75;100.00
54262;BME280;40174;52.364;6.452;2023-03-13T02:10:57;99620.84;;;7.75;100.00
54262;BME280;40174;52.364;6.452;2023-03-13T02:13:28;99617.94;;;7.78;100.00
54262;BME280;40174;52.364;6.452;2023-03-13T02:15:55;99592.31;;;7.80;100.00
54262;BME280;40174;52.364;6.452;2023-03-13T02:18:22;99600.66;;;7.85;100.00
54262;BME280;40174;52.364;6.452;2023-03-13T02:20:55;99599.00;;;7.84;100.00
54262;BME280;40174;52.364;6.452;2023-03-13T02:23:30;99581.56;;;7.93;100.00
54262;BME280;40174;52.364;6.452;2023-03-13T02:26:01;99577.53;;;7.88;100.00
54262;BME280;40174;52.364;6.452;2023-03-13T02:28:33;99573.09;;;7.89;100.00
54262;BME280;40174;52.364;6.452;2023-03-13T02:31:07;99568.53;;;7.91;100.00
54262;BME280;40174;52.364;6.452;2023-03-13T02:33:36;99557.06;;;7.92;100.00
54262;BME280;40174;52.364;6.452;2023-03-13T02:36:06;99546.25;;;7.95;100.00
54262;BME280;40174;52.364;6.452;2023-03-13T02:38:38;99525.19;;;7.95;100.00
54262;BME280;40174;52.364;6.452;2023-03-13T02:41:08;99528.66;;;7.96;100.00
54262;BME280;40174;52.364;6.452;2023-03-13T02:43:37;99519.81;;;7.97;100.00
54262;BME280;40174;52.364;6.452;2023-03-13T02:46:08;99507.34;;;7.99;100.00
54262;BME280;40174;52.364;6.452;2023-03-13T02:48:41;99500.28;;;7.99;100.00
54262;BME280;40174;52.364;6.452;2023-03-13T02:51:13;99517.88;;;7.99;100.00
54262;BME280;40174;52.364;6.452;2023-03-13T02:53:42;99491.66;;;8.07;100.00
54262;BME280;40174;52.364;6.452;2023-03-13T02:56:11;99496.25;;;8.05;100.00
54262;BME280;40174;52.364;6.452;2023-03-13T02:58:41;99495.97;;;8.08;100.00
54262;BME280;40174;52.364;6.452;2023-03-13T03:01:09;99479.47;;;8.16;100.00
54262;BME280;40174;52.364;6.452;2023-03-13T03:03:38;99478.78;;;8.13;100.00
54262;BME280;40174;52.364;6.452;2023-03-13T03:06:05;99481.00;;;8.08;100.00
54262;BME280;40174;52.364;6.452;2023-03-13T03:08:34;99477.00;;;8.14;100.00
54262;BME280;40174;52.364;6.452;2023-03-13T03:11:04;99461.91;;;8.16;100.00
54262;BME280;40174;52.364;6.452;2023-03-13T03:13:32;99466.75;;;8.21;100.00
54262;BME280;40174;52.364;6.452;2023-03-13T03:15:58;99462.16;;;8.23;100.00
54262;BME280;40174;52.364;6.452;2023-03-13T03:18:25;99452.19;;;8.26;100.00
54262;BME280;40174;52.364;6.452;2023-03-13T03:20:52;99457.16;;;8.29;100.00
54262;BME280;40174;52.364;6.452;2023-03-13T03:23:19;99441.09;;;8.32;100.00
54262;BME280;40174;52.364;6.452;2023-03-13T03:25:45;99454.66;;;8.38;100.00
54262;BME280;40174;52.364;6.452;2023-03-13T03:28:12;99446.88;;;8.36;100.00
54262;BME280;40174;52.364;6.452;2023-03-13T03:30:42;99451.63;;;8.42;100.00
54262;BME280;40174;52.364;6.452;2023-03-13T03:33:09;99450.94;;;8.40;100.00
54262;BME280;40174;52.364;6.452;2023-03-13T03:35:36;99448.16;;;8.42;100.00
54262;BME280;40174;52.364;6.452;2023-03-13T03:38:05;99452.31;;;8.44;100.00
54262;BME280;40174;52.364;6.452;2023-03-13T03:40:33;99441.78;;;8.44;100.00
54262;BME280;40174;52.364;6.452;2023-03-13T03:43:00;99435.13;;;8.50;100.00
54262;BME280;40174;52.364;6.452;2023-03-13T03:45:27;99443.72;;;8.52;100.00
54262;BME280;40174;52.364;6.452;2023-03-13T03:47:55;99435.63;;;8.53;100.00
54262;BME280;40174;52.364;6.452;2023-03-13T03:50:24;99433.19;;;8.52;100.00
54262;BME280;40174;52.364;6.452;2023-03-13T03:52:56;99424.59;;;8.50;100.00
54262;BME280;40174;52.364;6.452;2023-03-13T03:55:24;99427.16;;;8.60;100.00
54262;BME280;40174;52.364;6.452;2023-03-13T03:57:51;99425.09;;;8.63;100.00
54262;BME280;40174;52.364;6.452;2023-03-13T04:00:32;99416.59;;;8.69;100.00
54262;BME280;40174;52.364;6.452;2023-03-13T04:03:00;99435.56;;;8.73;100.00
54262;BME280;40174;52.364;6.452;2023-03-13T04:05:27;99432.63;;;8.76;100.00
54262;BME280;40174;52.364;6.452;2023-03-13T04:07:54;99430.16;;;8.74;100.00
54262;BME280;40174;52.364;6.452;2023-03-13T04:10:21;99432.50;;;8.78;100.00
54262;BME280;40174;52.364;6.452;2023-03-13T04:12:48;99424.84;;;8.84;100.00
54262;BME280;40174;52.364;6.452;2023-03-13T04:15:14;99406.09;;;8.87;100.00
54262;BME280;40174;52.364;6.452;2023-03-13T04:17:41;99407.47;;;8.91;100.00
54262;BME280;40174;52.364;6.452;2023-03-13T04:20:11;99402.19;;;8.91;100.00
54262;BME280;40174;52.364;6.452;2023-03-13T04:22:39;99400.25;;;8.93;100.00
54262;BME280;40174;52.364;6.452;2023-03-13T04:25:07;99408.00;;;8.95;100.00
54262;BME280;40174;52.364;6.452;2023-03-13T04:27:35;99408.16;;;8.93;100.00
54262;BME280;40174;52.364;6.452;2023-03-13T04:30:03;99406.75;;;8.99;100.00
54262;BME280;40174;52.364;6.452;2023-03-13T04:32:43;99410.72;;;9.03;100.00
54262;BME280;40174;52.364;6.452;2023-03-13T04:35:50;99398.53;;;9.02;100.00
54262;BME280;40174;52.364;6.452;2023-03-13T04:38:35;99397.41;;;9.05;100.00
54262;BME280;40174;52.364;6.452;2023-03-13T04:41:14;99402.22;;;9.09;100.00
54262;BME280;40174;52.364;6.452;2023-03-13T04:44:09;99407.59;;;9.18;100.00
54262;BME280;40174;52.364;6.452;2023-03-13T04:47:03;99392.47;;;9.20;100.00
54262;BME280;40174;52.364;6.452;2023-03-13T04:49:58;99385.75;;;9.25;100.00
54262;BME280;40174;52.364;6.452;2023-03-13T04:52:41;99379.53;;;9.26;100.00
54262;BME280;40174;52.364;6.452;2023-03-13T04:55:25;99366.16;;;9.28;100.00
54262;BME280;40174;52.364;6.452;2023-03-13T04:58:03;99365.22;;;9.29;100.00
54262;BME280;40174;52.364;6.452;2023-03-13T05:00:44;99365.44;;;9.35;100.00
54262;BME280;40174;52.364;6.452;2023-03-13T05:03:27;99368.88;;;9.36;100.00
54262;BME280;40174;52.364;6.452;2023-03-13T05:06:16;99359.69;;;9.40;100.00
54262;BME280;40174;52.364;6.452;2023-03-13T05:09:14;99354.94;;;9.44;100.00
54262;BME280;40174;52.364;6.452;2023-03-13T05:11:58;99343.28;;;9.46;100.00
54262;BME280;40174;52.364;6.452;2023-03-13T05:14:48;99335.66;;;9.43;100.00
54262;BME280;40174;52.364;6.452;2023-03-13T05:17:21;99331.88;;;9.46;100.00
54262;BME280;40174;52.364;6.452;2023-03-13T05:20:14;99329.91;;;9.48;100.00
54262;BME280;40174;52.364;6.452;2023-03-13T05:22:51;99329.69;;;9.59;100.00
54262;BME280;40174;52.364;6.452;2023-03-13T05:25:40;99322.16;;;9.64;100.00
54262;BME280;40174;52.364;6.452;2023-03-13T05:28:17;99309.44;;;9.60;100.00
54262;BME280;40174;52.364;6.452;2023-03-13T05:31:10;99319.34;;;9.66;100.00
54262;BME280;40174;52.364;6.452;2023-03-13T05:33:36;99311.06;;;9.61;100.00
54262;BME280;40174;52.364;6.452;2023-03-13T05:36:27;99308.97;;;9.64;100.00
54262;BME280;40174;52.364;6.452;2023-03-13T05:39:15;99308.19;;;9.72;100.00
54262;BME280;40174;52.364;6.452;2023-03-13T05:41:49;99312.66;;;9.79;100.00
54262;BME280;40174;52.364;6.452;2023-03-13T05:44:25;99313.88;;;9.85;100.00
54262;BME280;40174;52.364;6.452;2023-03-13T05:46:52;99304.16;;;9.86;100.00
54262;BME280;40174;52.364;6.452;2023-03-13T05:49:37;99310.56;;;9.83;100.00
54262;BME280;40174;52.364;6.452;2023-03-13T05:52:11;99306.63;;;9.87;100.00
54262;BME280;40174;52.364;6.452;2023-03-13T05:54:58;99310.78;;;9.90;100.00
54262;BME280;40174;52.364;6.452;2023-03-13T05:57:45;99307.81;;;9.93;100.00
54262;BME280;40174;52.364;6.452;2023-03-13T06:00:31;99328.66;;;10.04;100.00
54262;BME280;40174;52.364;6.452;2023-03-13T06:03:23;99309.34;;;10.04;100.00
54262;BME280;40174;52.364;6.452;2023-03-13T06:05:56;99320.28;;;10.09;100.00
54262;BME280;40174;52.364;6.452;2023-03-13T06:08:37;99316.34;;;10.13;100.00
54262;BME280;40174;52.364;6.452;2023-03-13T06:11:04;99324.63;;;10.18;100.00
54262;BME280;40174;52.364;6.452;2023-03-13T06:13:33;99328.91;;;10.19;100.00
54262;BME280;40174;52.364;6.452;2023-03-13T06:16:13;99325.75;;;10.15;100.00
54262;BME280;40174;52.364;6.452;2023-03-13T06:18:43;99314.38;;;10.15;100.00
54262;BME280;40174;52.364;6.452;2023-03-13T06:21:10;99305.31;;;10.17;100.00
54262;BME280;40174;52.364;6.452;2023-03-13T06:23:36;99311.25;;;10.19;100.00
54262;BME280;40174;52.364;6.452;2023-03-13T06:26:03;99320.53;;;10.24;100.00
54262;BME280;40174;52.364;6.452;2023-03-13T06:28:30;99315.63;;;10.29;100.00
54262;BME280;40174;52.364;6.452;2023-03-13T06:31:02;99307.69;;;10.29;100.00
54262;BME280;40174;52.364;6.452;2023-03-13T06:33:29;99299.47;;;10.32;100.00
54262;BME280;40174;52.364;6.452;2023-03-13T06:35:56;99295.84;;;10.33;100.00
54262;BME280;40174;52.364;6.452;2023-03-13T06:38:23;99296.97;;;10.30;100.00
54262;BME280;40174;52.364;6.452;2023-03-13T06:40:50;99302.94;;;10.32;100.00
54262;BME280;40174;52.364;6.452;2023-03-13T06:43:17;99288.72;;;10.33;100.00
54262;BME280;40174;52.364;6.452;2023-03-13T06:45:44;99285.94;;;10.35;100.00
54262;BME280;40174;52.364;6.452;2023-03-13T06:48:12;99291.75;;;10.38;100.00
54262;BME280;40174;52.364;6.452;2023-03-13T06:50:40;99277.06;;;10.36;100.00
54262;BME280;40174;52.364;6.452;2023-03-13T06:53:08;99277.88;;;10.36;100.00
54262;BME280;40174;52.364;6.452;2023-03-13T06:55:39;99275.72;;;10.40;100.00
54262;BME280;40174;52.364;6.452;2023-03-13T06:58:06;99281.00;;;10.40;100.00
54262;BME280;40174;52.364;6.452;2023-03-13T07:00:33;99279.22;;;10.40;100.00
54262;BME280;40174;52.364;6.452;2023-03-13T07:02:59;99281.84;;;10.40;100.00
54262;BME280;40174;52.364;6.452;2023-03-13T07:05:27;99284.00;;;10.45;100.00
54262;BME280;40174;52.364;6.452;2023-03-13T07:07:54;99277.72;;;10.46;100.00
54262;BME280;40174;52.364;6.452;2023-03-13T07:10:21;99275.91;;;10.47;100.00
54262;BME280;40174;52.364;6.452;2023-03-13T07:12:51;99271.97;;;10.51;100.00
54262;BME280;40174;52.364;6.452;2023-03-13T07:15:17;99278.09;;;10.59;100.00
54262;BME280;40174;52.364;6.452;2023-03-13T07:17:44;99268.72;;;10.65;100.00
54262;BME280;40174;52.364;6.452;2023-03-13T07:20:11;99277.28;;;10.59;100.00
54262;BME280;40174;52.364;6.452;2023-03-13T07:22:39;99271.00;;;10.60;100.00
54262;BME280;40174;52.364;6.452;2023-03-13T07:25:07;99274.50;;;10.60;100.00
54262;BME280;40174;52.364;6.452;2023-03-13T07:27:34;99263.44;;;10.65;100.00
54262;BME280;40174;52.364;6.452;2023-03-13T07:30:00;99285.88;;;10.69;100.00
54262;BME280;40174;52.364;6.452;2023-03-13T07:32:30;99278.47;;;10.73;100.00
54262;BME280;40174;52.364;6.452;2023-03-13T07:34:57;99293.16;;;10.75;100.00
54262;BME280;40174;52.364;6.452;2023-03-13T07:37:23;99272.53;;;10.79;100.00
54262;BME280;40174;52.364;6.452;2023-03-13T07:39:51;99275.19;;;10.79;100.00
54262;BME280;40174;52.364;6.452;2023-03-13T07:42:18;99271.06;;;10.76;100.00
54262;BME280;40174;52.364;6.452;2023-03-13T07:44:44;99274.38;;;10.78;100.00
54262;BME280;40174;52.364;6.452;2023-03-13T07:47:11;99263.59;;;10.80;100.00
54262;BME280;40174;52.364;6.452;2023-03-13T07:49:37;99287.09;;;10.83;100.00
54262;BME280;40174;52.364;6.452;2023-03-13T07:52:08;99260.84;;;10.90;100.00
54262;BME280;40174;52.364;6.452;2023-03-13T07:54:34;99276.03;;;10.96;100.00
54262;BME280;40174;52.364;6.452;2023-03-13T07:57:03;99270.72;;;10.96;100.00
54262;BME280;40174;52.364;6.452;2023-03-13T07:59:29;99282.97;;;10.97;100.00
54262;BME280;40174;52.364;6.452;2023-03-13T08:01:56;99293.56;;;10.97;100.00
54262;BME280;40174;52.364;6.452;2023-03-13T08:04:22;99274.56;;;11.01;100.00
54262;BME280;40174;52.364;6.452;2023-03-13T08:06:49;99305.28;;;11.11;100.00
54262;BME280;40174;52.364;6.452;2023-03-13T08:09:19;99287.75;;;11.10;100.00
54262;BME280;40174;52.364;6.452;2023-03-13T08:11:45;99277.53;;;11.07;100.00
54262;BME280;40174;52.364;6.452;2023-03-13T08:14:14;99284.16;;;11.11;100.00
54262;BME280;40174;52.364;6.452;2023-03-13T08:16:41;99297.88;;;11.14;100.00
54262;BME280;40174;52.364;6.452;2023-03-13T08:19:09;99278.84;;;11.11;100.00
54262;BME280;40174;52.364;6.452;2023-03-13T08:21:37;99288.63;;;11.10;100.00
54262;BME280;40174;52.364;6.452;2023-03-13T08:24:05;99301.84;;;11.10;100.00
54262;BME280;40174;52.364;6.452;2023-03-13T08:26:33;99299.34;;;11.09;100.00
54262;BME280;40174;52.364;6.452;2023-03-13T08:29:01;99300.34;;;11.08;100.00
54262;BME280;40174;52.364;6.452;2023-03-13T08:31:32;99295.06;;;11.08;100.00
54262;BME280;40174;52.364;6.452;2023-03-13T08:33:59;99308.09;;;11.09;100.00
54262;BME280;40174;52.364;6.452;2023-03-13T08:36:28;99304.28;;;11.12;100.00
54262;BME280;40174;52.364;6.452;2023-03-13T08:38:59;99291.75;;;11.14;100.00
54262;BME280;40174;52.364;6.452;2023-03-13T08:41:28;99298.69;;;11.15;100.00
54262;BME280;40174;52.364;6.452;2023-03-13T08:43:55;99293.56;;;11.13;100.00
54262;BME280;40174;52.364;6.452;2023-03-13T08:46:22;99291.25;;;11.18;100.00
54262;BME280;40174;52.364;6.452;2023-03-13T08:48:51;99286.47;;;11.22;100.00
54262;BME280;40174;52.364;6.452;2023-03-13T08:51:20;99281.03;;;11.23;100.00
54262;BME280;40174;52.364;6.452;2023-03-13T08:53:47;99273.41;;;11.20;100.00
54262;BME280;40174;52.364;6.452;2023-03-13T08:56:16;99275.88;;;11.22;100.00
54262;BME280;40174;52.364;6.452;2023-03-13T08:58:48;99275.72;;;11.23;100.00
54262;BME280;40174;52.364;6.452;2023-03-13T09:01:19;99293.25;;;11.24;100.00
54262;BME280;40174;52.364;6.452;2023-03-13T09:03:46;99276.38;;;11.17;100.00
54262;BME280;40174;52.364;6.452;2023-03-13T09:06:15;99274.72;;;11.16;100.00
54262;BME280;40174;52.364;6.452;2023-03-13T09:08:42;99281.81;;;11.16;100.00
54262;BME280;40174;52.364;6.452;2023-03-13T09:11:11;99268.28;;;11.19;100.00
54262;BME280;40174;52.364;6.452;2023-03-13T09:13:40;99266.28;;;11.21;100.00
54262;BME280;40174;52.364;6.452;2023-03-13T09:16:09;99262.00;;;11.28;100.00
54262;BME280;40174;52.364;6.452;2023-03-13T09:18:36;99264.81;;;11.35;100.00
54262;BME280;40174;52.364;6.452;2023-03-13T09:21:06;99274.38;;;11.36;100.00
54262;BME280;40174;52.364;6.452;2023-03-13T09:23:34;99257.53;;;11.37;100.00
54262;BME280;40174;52.364;6.452;2023-03-13T09:26:01;99242.97;;;11.49;100.00
54262;BME280;40174;52.364;6.452;2023-03-13T09:28:28;99244.28;;;11.53;100.00
54262;BME280;40174;52.364;6.452;2023-03-13T09:30:54;99246.59;;;11.56;100.00
54262;BME280;40174;52.364;6.452;2023-03-13T09:33:21;99247.25;;;11.58;100.00
54262;BME280;40174;52.364;6.452;2023-03-13T09:35:49;99245.09;;;11.62;100.00
54262;BME280;40174;52.364;6.452;2023-03-13T09:40:51;99248.72;;;11.61;100.00
54262;BME280;40174;52.364;6.452;2023-03-13T09:51:00;99233.34;;;11.73;100.00
54262;BME280;40174;52.364;6.452;2023-03-13T09:53:34;99246.88;;;11.78;100.00
54262;BME280;40174;52.364;6.452;2023-03-13T09:56:12;99227.03;;;11.82;100.00
54262;BME280;40174;52.364;6.452;2023-03-13T09:58:45;99231.16;;;11.84;100.00
54262;BME280;40174;52.364;6.452;2023-03-13T10:01:16;99229.00;;;11.88;100.00
54262;BME280;40174;52.364;6.452;2023-03-13T10:03:54;99234.44;;;12.03;100.00
54262;BME280;40174;52.364;6.452;2023-03-13T10:06:22;99204.38;;;12.27;100.00
54262;BME280;40174;52.364;6.452;2023-03-13T10:08:50;99214.88;;;12.43;100.00
54262;BME280;40174;52.364;6.452;2023-03-13T10:11:24;99201.44;;;12.45;100.00
54262;BME280;40174;52.364;6.452;2023-03-13T10:13:55;99205.03;;;12.52;100.00
54262;BME280;40174;52.364;6.452;2023-03-13T10:16:28;99200.56;;;12.53;100.00
54262;BME280;40174;52.364;6.452;2023-03-13T10:26:34;99194.72;;;12.57;100.00
54262;BME280;40174;52.364;6.452;2023-03-13T10:36:39;99180.63;;;12.65;100.00
54262;BME280;40174;52.364;6.452;2023-03-13T10:39:11;99185.84;;;12.73;100.00
54262;BME280;40174;52.364;6.452;2023-03-13T10:53:36;99160.38;;;13.25;100.00
54262;BME280;40174;52.364;6.452;2023-03-13T10:56:09;99159.75;;;13.23;100.00
54262;BME280;40174;52.364;6.452;2023-03-13T10:58:40;99173.47;;;13.26;100.00
54262;BME280;40174;52.364;6.452;2023-03-13T11:01:16;99165.56;;;13.41;100.00
54262;BME280;40174;52.364;6.452;2023-03-13T11:03:45;99133.63;;;13.64;100.00
54262;BME280;40174;52.364;6.452;2023-03-13T11:06:25;99148.88;;;13.92;100.00
54262;BME280;40174;52.364;6.452;2023-03-13T11:08:59;99148.22;;;13.90;100.00
54262;BME280;40174;52.364;6.452;2023-03-13T11:11:27;99159.13;;;13.95;100.00
54262;BME280;40174;52.364;6.452;2023-03-13T11:14:06;99142.19;;;13.96;100.00
54262;BME280;40174;52.364;6.452;2023-03-13T11:24:14;99158.28;;;14.09;100.00
54262;BME280;40174;52.364;6.452;2023-03-13T11:33:54;99179.03;;;14.35;100.00
54262;BME280;40174;52.364;6.452;2023-03-13T11:36:25;99133.44;;;14.39;100.00
54262;BME280;40174;52.364;6.452;2023-03-13T11:39:00;99126.00;;;14.49;100.00
54262;BME280;40174;52.364;6.452;2023-03-13T11:41:44;99124.56;;;14.68;100.00
54262;BME280;40174;52.364;6.452;2023-03-13T11:59:51;99101.28;;;15.33;100.00
54262;BME280;40174;52.364;6.452;2023-03-13T12:02:24;99097.88;;;15.11;100.00
54262;BME280;40174;52.364;6.452;2023-03-13T12:04:56;99091.94;;;15.09;100.00
54262;BME280;40174;52.364;6.452;2023-03-13T12:07:26;99089.84;;;15.04;100.00
54262;BME280;40174;52.364;6.452;2023-03-13T12:09:57;99091.91;;;15.02;100.00
54262;BME280;40174;52.364;6.452;2023-03-13T12:12:34;99086.31;;;14.97;100.00
54262;BME280;40174;52.364;6.452;2023-03-13T12:15:15;99064.81;;;14.92;100.00
54262;BME280;40174;52.364;6.452;2023-03-13T12:17:48;99066.50;;;15.00;100.00
54262;BME280;40174;52.364;6.452;2023-03-13T12:20:21;99074.47;;;15.00;100.00
54262;BME280;40174;52.364;6.452;2023-03-13T12:22:53;99076.31;;;14.99;100.00
54262;BME280;40174;52.364;6.452;2023-03-13T12:25:24;99063.84;;;15.00;100.00
54262;BME280;40174;52.364;6.452;2023-03-13T12:27:57;99072.44;;;15.02;100.00
54262;BME280;40174;52.364;6.452;2023-03-13T12:30:35;99045.84;;;15.02;100.00
54262;BME280;40174;52.364;6.452;2023-03-13T12:33:12;99068.38;;;15.06;100.00
54262;BME280;40174;52.364;6.452;2023-03-13T12:35:44;99051.59;;;15.05;100.00
54262;BME280;40174;52.364;6.452;2023-03-13T12:38:16;99047.19;;;15.19;100.00
54262;BME280;40174;52.364;6.452;2023-03-13T12:40:50;99039.94;;;15.48;100.00
54262;BME280;40174;52.364;6.452;2023-03-13T12:43:26;99025.75;;;15.75;100.00
54262;BME280;40174;52.364;6.452;2023-03-13T12:46:11;99026.16;;;15.79;100.00
54262;BME280;40174;52.364;6.452;2023-03-13T12:48:51;99026.28;;;15.64;100.00
54262;BME280;40174;52.364;6.452;2023-03-13T12:51:33;99023.28;;;15.74;100.00
54262;BME280;40174;52.364;6.452;2023-03-13T12:57:13;99018.72;;;15.61;100.00
54262;BME280;40174;52.364;6.452;2023-03-13T12:59:45;99022.09;;;15.90;100.00
54262;BME280;40174;52.364;6.452;2023-03-13T13:02:17;99014.72;;;15.85;100.00
54262;BME280;40174;52.364;6.452;2023-03-13T13:04:46;99020.63;;;15.74;93.85
54262;BME280;40174;52.364;6.452;2023-03-13T13:07:24;99006.91;;;15.77;96.09
54262;BME280;40174;52.364;6.452;2023-03-13T13:12:46;99011.06;;;16.06;96.98
54262;BME280;40174;52.364;6.452;2023-03-13T13:15:19;99012.06;;;15.98;96.33
54262;BME280;40174;52.364;6.452;2023-03-13T13:20:46;99020.84;;;15.86;86.39
54262;BME280;40174;52.364;6.452;2023-03-13T13:32:36;99014.75;;;16.72;77.56
54262;BME280;40174;52.364;6.452;2023-03-13T13:35:05;98996.88;;;16.92;82.98
54262;BME280;40174;52.364;6.452;2023-03-13T13:37:45;98992.34;;;17.06;78.34
54262;BME280;40174;52.364;6.452;2023-03-13T13:40:21;99025.53;;;17.30;79.20
54262;BME280;40174;52.364;6.452;2023-03-13T13:42:51;98987.59;;;17.15;80.89
54262;BME280;40174;52.364;6.452;2023-03-13T13:45:26;98993.75;;;17.22;79.44
54262;BME280;40174;52.364;6.452;2023-03-13T13:50:35;98990.84;;;17.23;80.30
54262;BME280;40174;52.364;6.452;2023-03-13T13:53:30;98984.75;;;17.10;78.51
54262;BME280;40174;52.364;6.452;2023-03-13T13:55:57;98981.75;;;16.86;80.48
54262;BME280;40174;52.364;6.452;2023-03-13T13:58:27;98981.13;;;16.84;78.63
54262;BME280;40174;52.364;6.452;2023-03-13T14:00:58;98978.63;;;16.89;78.99
54262;BME280;40174;52.364;6.452;2023-03-13T14:03:27;98961.81;;;16.89;82.69
54262;BME280;40174;52.364;6.452;2023-03-13T14:05:55;98970.22;;;16.72;81.47
54262;BME280;40174;52.364;6.452;2023-03-13T14:08:27;98977.44;;;16.58;81.56
54262;BME280;40174;52.364;6.452;2023-03-13T14:11:08;98976.41;;;16.59;82.91
54262;BME280;40174;52.364;6.452;2023-03-13T14:13:40;98972.72;;;16.60;83.50
54262;BME280;40174;52.364;6.452;2023-03-13T14:16:20;98972.31;;;16.50;83.67
54262;BME280;40174;52.364;6.452;2023-03-13T14:18:47;98985.44;;;16.45;81.60
54262;BME280;40174;52.364;6.452;2023-03-13T14:21:20;98970.69;;;16.42;84.79
54262;BME280;40174;52.364;6.452;2023-03-13T14:24:13;98965.13;;;16.51;82.93
54262;BME280;40174;52.364;6.452;2023-03-13T14:26:43;98975.78;;;16.71;82.13
54262;BME280;40174;52.364;6.452;2023-03-13T14:29:15;98957.72;;;16.73;78.26
54262;BME280;40174;52.364;6.452;2023-03-13T14:31:50;98953.00;;;16.81;77.50
54262;BME280;40174;52.364;6.452;2023-03-13T14:34:17;98956.06;;;16.92;78.44
54262;BME280;40174;52.364;6.452;2023-03-13T14:36:48;98955.88;;;16.67;75.33
54262;BME280;40174;52.364;6.452;2023-03-13T14:39:20;98973.53;;;16.54;76.05
54262;BME280;40174;52.364;6.452;2023-03-13T14:41:49;98953.22;;;16.67;76.38
54262;BME280;40174;52.364;6.452;2023-03-13T14:44:21;98959.75;;;16.77;76.86
54262;BME280;40174;52.364;6.452;2023-03-13T14:46:54;98954.66;;;16.82;77.65